createdAt,value
2022-08-10T00:01:44.136Z,101188.41
2022-08-10T00:04:10.991Z,101183.69
2022-08-10T00:06:49.240Z,101183.09
2022-08-10T00:09:15.999Z,101176.41
2022-08-10T00:11:42.834Z,101174.34
2022-08-10T00:14:09.677Z,101177.50
2022-08-10T00:16:36.525Z,101172.41
2022-08-10T00:19:03.467Z,101171.78
2022-08-10T00:21:30.283Z,101177.00
2022-08-10T00:23:57.042Z,101170.31
2022-08-10T00:26:23.972Z,101165.03
2022-08-10T00:28:50.734Z,101166.34
2022-08-10T00:31:17.619Z,101162.75
2022-08-10T00:33:44.417Z,101167.59
2022-08-10T00:36:11.351Z,101163.59
2022-08-10T00:38:38.234Z,101160.75
2022-08-10T00:41:05.393Z,101155.81
2022-08-10T00:43:32.284Z,101160.22
2022-08-10T00:46:00.437Z,101163.34
2022-08-10T00:48:30.705Z,101165.94
2022-08-10T00:50:59.400Z,101156.22
2022-08-10T00:53:29.415Z,101160.22
2022-08-10T00:57:12.756Z,101156.91
2022-08-10T00:58:44.249Z,101152.34
2022-08-10T01:02:10.936Z,101157.69
2022-08-10T01:04:57.693Z,101154.69
2022-08-10T01:07:06.413Z,101149.44
2022-08-10T01:09:57.411Z,101150.34
2022-08-10T01:12:47.104Z,101153.72
2022-08-10T01:15:34.268Z,101141.28
2022-08-10T01:18:05.518Z,101149.22
2022-08-10T01:20:39.488Z,101136.38
2022-08-10T01:23:26.563Z,101142.91
2022-08-10T01:26:31.296Z,101121.16
2022-08-10T01:29:26.400Z,101124.78
2022-08-10T01:31:57.719Z,101127.69
2022-08-10T01:34:32.747Z,101124.31
2022-08-10T01:37:06.739Z,101118.22
2022-08-10T01:39:38.724Z,101112.50
2022-08-10T01:42:06.638Z,101124.31
2022-08-10T01:44:39.664Z,101111.91
2022-08-10T01:47:32.003Z,101093.72
2022-08-10T01:50:10.666Z,101091.91
2022-08-10T01:52:42.331Z,101096.28
2022-08-10T01:55:10.891Z,101104.59
2022-08-10T01:57:38.976Z,101098.63
2022-08-10T02:00:07.070Z,101104.16
2022-08-10T02:02:34.739Z,101098.53
2022-08-10T02:05:02.687Z,101105.34
2022-08-10T02:07:30.934Z,101112.47
2022-08-10T02:09:59.778Z,101114.19
2022-08-10T02:12:31.837Z,101101.56
2022-08-10T02:15:04.751Z,101094.84
2022-08-10T02:18:00.781Z,101087.31
2022-08-10T02:20:49.857Z,101087.06
2022-08-10T02:23:25.982Z,101087.78
2022-08-10T02:25:55.309Z,101084.81
2022-08-10T02:28:30.336Z,101090.22
2022-08-10T02:31:07.040Z,101091.59
2022-08-10T02:33:39.309Z,101088.16
2022-08-10T02:36:26.144Z,101099.34
2022-08-10T02:38:58.526Z,101098.00
2022-08-10T02:45:14.972Z,101099.75
2022-08-10T02:45:22.066Z,101108.06
2022-08-10T02:48:01.577Z,101096.56
2022-08-10T02:50:39.728Z,101092.94
2022-08-10T02:53:07.101Z,101088.41
2022-08-10T02:55:48.311Z,101097.47
2022-08-10T02:58:20.395Z,101098.75
2022-08-10T03:00:52.263Z,101102.00
2022-08-10T03:03:22.566Z,101100.34
2022-08-10T03:05:52.819Z,101100.03
2022-08-10T03:08:22.973Z,101098.72
2022-08-10T03:10:50.878Z,101106.25
2022-08-10T03:13:18.133Z,101113.16
2022-08-10T03:15:45.539Z,101112.25
2022-08-10T03:18:13.632Z,101111.41
2022-08-10T03:20:41.946Z,101100.38
2022-08-10T03:23:13.527Z,101102.63
2022-08-10T03:25:40.756Z,101104.81
2022-08-10T03:28:08.094Z,101115.44
2022-08-10T03:30:35.513Z,101110.59
2022-08-10T03:33:04.694Z,101108.38
2022-08-10T03:35:32.075Z,101102.97
2022-08-10T03:38:00.237Z,101102.03
2022-08-10T03:40:44.975Z,101097.63
2022-08-10T03:43:18.579Z,101101.78
2022-08-10T03:45:58.291Z,101088.22
2022-08-10T03:48:44.638Z,101095.97
2022-08-10T03:51:15.023Z,101098.91
2022-08-10T03:54:04.336Z,101099.97
2022-08-10T03:56:32.302Z,101102.59
2022-08-10T03:59:00.835Z,101100.59
2022-08-10T04:02:45.980Z,101103.75
2022-08-10T04:04:22.536Z,101104.44
2022-08-10T04:06:56.015Z,101097.28
2022-08-10T04:09:43.435Z,101105.28
2022-08-10T04:12:15.664Z,101099.59
2022-08-10T04:14:50.666Z,101103.47
2022-08-10T04:18:01.332Z,101109.06
2022-08-10T04:20:18.230Z,101105.97
2022-08-10T04:22:48.575Z,101103.41
2022-08-10T04:25:15.609Z,101095.44
2022-08-10T04:27:42.856Z,101094.88
2022-08-10T04:30:10.257Z,101100.22
2022-08-10T04:32:37.998Z,101092.47
2022-08-10T04:35:05.887Z,101095.59
2022-08-10T04:37:34.936Z,101091.31
2022-08-10T04:40:02.069Z,101090.41
2022-08-10T04:42:29.111Z,101087.53
2022-08-10T04:44:57.067Z,101093.97
2022-08-10T04:47:57.845Z,101085.13
2022-08-10T04:50:10.903Z,101094.59
2022-08-10T04:52:37.764Z,101091.50
2022-08-10T04:55:05.236Z,101101.03
2022-08-10T04:57:32.018Z,101105.28
2022-08-10T04:59:58.983Z,101108.94
2022-08-10T05:02:31.377Z,101100.59
2022-08-10T05:04:59.167Z,101101.25
2022-08-10T05:07:26.040Z,101101.00
2022-08-10T05:10:02.146Z,101097.28
2022-08-10T05:12:37.935Z,101099.28
2022-08-10T05:15:12.453Z,101100.47
2022-08-10T05:17:40.899Z,101097.69
2022-08-10T05:20:27.714Z,101096.50
2022-08-10T05:22:54.505Z,101094.03
2022-08-10T05:25:21.363Z,101089.34
2022-08-10T05:27:48.195Z,101101.16
2022-08-10T05:30:21.977Z,101099.44
2022-08-10T05:32:56.301Z,101096.84
2022-08-10T05:35:25.268Z,101093.03
2022-08-10T05:38:09.061Z,101101.16
2022-08-10T05:40:41.142Z,101094.47
2022-08-10T05:43:12.933Z,101105.66
2022-08-10T05:46:16.809Z,101102.25
2022-08-10T05:48:54.954Z,101102.13
2022-08-10T05:51:16.129Z,101087.59
2022-08-10T05:54:01.746Z,101098.19
2022-08-10T05:56:57.033Z,101091.31
2022-08-10T06:00:12.614Z,101090.47
2022-08-10T06:02:32.867Z,101077.53
2022-08-10T06:05:26.052Z,101079.88
2022-08-10T06:08:12.277Z,101074.06
2022-08-10T06:12:25.491Z,101068.72
2022-08-10T06:13:59.722Z,101080.63
2022-08-10T06:16:34.920Z,101081.97
2022-08-10T06:19:03.565Z,101082.78
2022-08-10T06:21:30.405Z,101087.06
2022-08-10T06:23:59.241Z,101069.53
2022-08-10T06:26:26.170Z,101070.63
2022-08-10T06:29:08.076Z,101071.13
2022-08-10T06:31:47.981Z,101076.69
2022-08-10T06:34:24.251Z,101081.16
2022-08-10T06:36:53.119Z,101074.81
2022-08-10T06:39:33.386Z,101084.78
2022-08-10T06:42:15.924Z,101073.81
2022-08-10T06:45:01.182Z,101072.59
2022-08-10T06:47:55.999Z,101071.94
2022-08-10T06:50:55.941Z,101074.03
2022-08-10T06:53:53.745Z,101079.50
2022-08-10T06:56:18.020Z,101071.03
2022-08-10T06:58:53.166Z,101071.66
2022-08-10T07:01:21.792Z,101061.81
2022-08-10T07:04:12.317Z,101058.06
2022-08-10T07:06:43.407Z,101056.00
2022-08-10T07:09:10.591Z,101060.22
2022-08-10T07:11:44.333Z,101060.94
2022-08-10T07:14:15.499Z,101065.84
2022-08-10T07:16:46.074Z,101054.97
2022-08-10T07:19:13.546Z,101056.94
2022-08-10T07:21:42.660Z,101068.19
2022-08-10T07:24:10.624Z,101056.13
2022-08-10T07:26:39.916Z,101059.47
2022-08-10T07:29:07.219Z,101051.00
2022-08-10T07:31:57.883Z,101043.97
2022-08-10T07:34:28.508Z,101048.84
2022-08-10T07:37:01.580Z,101060.91
2022-08-10T07:39:58.008Z,101054.22
2022-08-10T07:42:22.878Z,101058.06
2022-08-10T07:44:50.641Z,101051.31
2022-08-10T07:47:46.219Z,101055.72
2022-08-10T07:50:11.628Z,101056.28
2022-08-10T07:52:39.941Z,101053.38
2022-08-10T07:55:08.425Z,101047.13
2022-08-10T07:57:40.019Z,101030.06
2022-08-10T08:00:10.661Z,101042.78
2022-08-10T08:02:46.321Z,101040.41
2022-08-10T08:05:57.327Z,101034.22
2022-08-10T08:08:01.882Z,101036.97
2022-08-10T08:10:29.679Z,101032.94
2022-08-10T08:13:01.403Z,101035.41
2022-08-10T08:16:16.908Z,101036.00
2022-08-10T08:18:21.684Z,101028.91
2022-08-10T08:20:54.357Z,101031.19
2022-08-10T08:24:04.780Z,101040.47
2022-08-10T08:26:10.651Z,101032.91
2022-08-10T08:28:38.180Z,101034.81
2022-08-10T08:31:05.435Z,101031.00
2022-08-10T08:33:41.576Z,101029.13
2022-08-10T08:36:10.162Z,101026.19
2022-08-10T08:38:37.428Z,101024.28
2022-08-10T08:41:28.679Z,101021.34
2022-08-10T08:44:08.003Z,101026.53
2022-08-10T08:46:59.646Z,101021.09
2022-08-10T08:50:04.955Z,101020.06
2022-08-10T08:52:35.944Z,101019.56
2022-08-10T08:56:03.281Z,101016.59
2022-08-10T08:58:27.619Z,101017.16
2022-08-10T09:01:17.704Z,101018.81
2022-08-10T09:03:52.707Z,101017.72
2022-08-10T09:06:41.244Z,101017.47
2022-08-10T09:09:21.333Z,101008.22
2022-08-10T09:12:07.294Z,101008.47
2022-08-10T09:14:49.608Z,101012.03
2022-08-10T09:17:24.357Z,101011.75
2022-08-10T09:20:04.556Z,100999.75
2022-08-10T09:22:43.319Z,100998.13
2022-08-10T09:25:24.323Z,101003.28
2022-08-10T09:28:00.173Z,100996.75
2022-08-10T09:31:03.645Z,100996.75
2022-08-10T09:36:20.305Z,100993.19
2022-08-10T09:36:32.868Z,100996.19
2022-08-10T09:39:06.632Z,100995.63
2022-08-10T09:41:46.948Z,100983.00
2022-08-10T09:44:57.175Z,100984.63
2022-08-10T09:48:10.374Z,100985.19
2022-08-10T09:51:22.716Z,100982.63
2022-08-10T09:53:44.554Z,100984.28
2022-08-10T09:56:50.315Z,100976.88
2022-08-10T10:00:01.709Z,100977.69
2022-08-10T10:02:34.631Z,100966.16
2022-08-10T10:05:51.304Z,100965.81
2022-08-10T10:08:22.212Z,100959.25
2022-08-10T10:10:51.708Z,100965.25
2022-08-10T10:13:41.497Z,100952.91
2022-08-10T10:16:40.545Z,100961.84
2022-08-10T10:19:21.094Z,100952.53
2022-08-10T10:22:13.133Z,100950.59
2022-08-10T10:24:41.912Z,100934.88
2022-08-10T10:27:23.171Z,100939.78
2022-08-10T10:30:22.515Z,100939.88
2022-08-10T10:32:59.577Z,100926.25
2022-08-10T10:35:37.329Z,100930.63
2022-08-10T10:38:07.325Z,100918.56
2022-08-10T10:41:03.815Z,100922.25
2022-08-10T10:43:45.830Z,100913.63
2022-08-10T10:46:46.080Z,100920.72
2022-08-10T10:49:35.673Z,100911.97
2022-08-10T10:52:17.999Z,100905.22
2022-08-10T10:55:04.045Z,100913.25
2022-08-10T10:58:00.526Z,100910.03
2022-08-10T11:01:03.163Z,100912.94
2022-08-10T11:03:39.208Z,100913.91
2022-08-10T11:06:12.216Z,100920.34
2022-08-10T11:08:44.774Z,100916.72
2022-08-10T11:12:01.523Z,100915.47
2022-08-10T11:14:33.670Z,100915.13
2022-08-10T11:17:19.588Z,100914.66
2022-08-10T11:20:20.567Z,100915.47
2022-08-10T11:22:58.614Z,100907.31
2022-08-10T11:25:33.491Z,100909.78
2022-08-10T11:28:18.800Z,100907.50
2022-08-10T11:31:11.803Z,100898.69
2022-08-10T11:34:03.777Z,100897.19
2022-08-10T11:36:43.132Z,100893.91
2022-08-10T11:39:19.115Z,100908.38
2022-08-10T11:42:10.196Z,100903.03
2022-08-10T11:44:54.863Z,100899.47
2022-08-10T11:47:30.163Z,100896.19
2022-08-10T11:50:04.461Z,100894.34
2022-08-10T11:52:49.755Z,100883.22
2022-08-10T11:55:22.910Z,100880.72
2022-08-10T11:57:53.843Z,100892.78
2022-08-10T12:00:22.420Z,100881.84
2022-08-10T12:03:02.186Z,100884.41
2022-08-10T12:05:52.547Z,100885.03
2022-08-10T12:10:05.906Z,100872.84
2022-08-10T12:11:12.778Z,100879.53
2022-08-10T12:14:19.854Z,100882.16
2022-08-10T12:16:50.346Z,100882.16
2022-08-10T12:19:27.944Z,100884.06
2022-08-10T12:22:05.088Z,100881.50
2022-08-10T12:24:38.777Z,100874.75
2022-08-10T12:27:21.375Z,100881.06
2022-08-10T12:30:01.798Z,100869.47
2022-08-10T12:32:39.973Z,100863.47
2022-08-10T12:35:11.541Z,100861.59
2022-08-10T12:38:13.321Z,100858.41
2022-08-10T12:40:49.148Z,100863.47
2022-08-10T12:44:07.998Z,100862.66
2022-08-10T12:46:25.122Z,100853.44
2022-08-10T12:49:04.055Z,100853.09
2022-08-10T12:51:32.508Z,100854.25
2022-08-10T12:54:13.805Z,100856.09
2022-08-10T12:56:59.952Z,100852.97
2022-08-10T12:59:28.161Z,100841.66
2022-08-10T13:02:06.964Z,100848.59
2022-08-10T13:04:38.834Z,100846.09
2022-08-10T13:07:06.828Z,100839.94
2022-08-10T13:09:34.594Z,100841.34
2022-08-10T13:12:35.780Z,100842.88
2022-08-10T13:15:50.043Z,100836.19
2022-08-10T13:18:19.066Z,100827.19
2022-08-10T13:20:51.475Z,100832.19
2022-08-10T13:23:22.809Z,100825.97
2022-08-10T13:25:50.906Z,100819.16
2022-08-10T13:28:37.278Z,100816.34
2022-08-10T13:31:43.783Z,100812.75
2022-08-10T13:34:43.569Z,100836.81
2022-08-10T13:37:12.293Z,100812.25
2022-08-10T13:39:59.676Z,100819.81
2022-08-10T13:42:34.454Z,100821.25
2022-08-10T13:45:16.352Z,100813.31
2022-08-10T13:47:49.419Z,100803.50
2022-08-10T13:50:34.832Z,100797.81
2022-08-10T13:53:15.497Z,100791.91
2022-08-10T13:55:55.544Z,100785.66
2022-08-10T13:58:34.744Z,100788.94
2022-08-10T14:01:12.843Z,100782.69
2022-08-10T14:03:41.278Z,100784.28
2022-08-10T14:06:11.965Z,100773.63
2022-08-10T14:08:38.957Z,100778.59
2022-08-10T14:11:16.051Z,100780.13
2022-08-10T14:13:52.462Z,100782.66
2022-08-10T14:16:19.941Z,100760.25
2022-08-10T14:18:47.976Z,100771.97
2022-08-10T14:21:15.139Z,100764.84
2022-08-10T14:23:52.076Z,100766.50
2022-08-10T14:26:22.389Z,100771.19
2022-08-10T14:28:54.811Z,100763.03
2022-08-10T14:31:24.901Z,100759.53
2022-08-10T14:33:55.624Z,100771.91
2022-08-10T14:36:42.567Z,100759.97
2022-08-10T14:39:15.522Z,100762.81
2022-08-10T14:42:04.169Z,100763.47
2022-08-10T14:44:30.901Z,100751.84
2022-08-10T14:47:03.969Z,100752.06
2022-08-10T14:49:57.089Z,100759.41
2022-08-10T14:52:27.251Z,100755.81
2022-08-10T14:54:55.147Z,100771.25
2022-08-10T14:57:22.532Z,100761.00
2022-08-10T15:00:28.089Z,100743.16
2022-08-10T15:03:01.377Z,100756.53
2022-08-10T15:05:35.975Z,100751.69
2022-08-10T15:08:07.056Z,100756.66
2022-08-10T15:10:34.006Z,100746.06
2022-08-10T15:13:02.149Z,100743.44
2022-08-10T15:15:31.355Z,100757.91
2022-08-10T15:18:17.742Z,100747.41
2022-08-10T15:20:44.737Z,100759.09
2022-08-10T15:23:29.991Z,100763.81
2022-08-10T15:26:04.796Z,100748.91
2022-08-10T15:29:22.296Z,100767.16
2022-08-10T15:31:56.752Z,100751.25
2022-08-10T15:34:43.312Z,100744.72
2022-08-10T15:37:39.629Z,100741.00
2022-08-10T15:40:21.969Z,100742.16
2022-08-10T15:43:24.511Z,100745.25
2022-08-10T15:45:57.925Z,100743.25
2022-08-10T15:48:27.855Z,100751.22
2022-08-10T15:51:06.134Z,100744.72
2022-08-10T15:53:47.015Z,100741.63
2022-08-10T15:56:28.196Z,100750.84
2022-08-10T15:59:24.653Z,100753.94
2022-08-10T16:02:04.188Z,100749.97
2022-08-10T16:04:48.786Z,100752.16
2022-08-10T16:07:46.223Z,100740.94
2022-08-10T16:10:25.812Z,100739.25
2022-08-10T16:12:59.325Z,100741.25
2022-08-10T16:15:29.468Z,100744.81
2022-08-10T16:18:01.712Z,100749.50
2022-08-10T16:20:53.390Z,100755.78
2022-08-10T16:23:26.033Z,100745.53
2022-08-10T16:26:13.282Z,100745.75
2022-08-10T16:28:55.881Z,100744.56
2022-08-10T16:31:25.219Z,100740.91
2022-08-10T16:33:55.314Z,100729.44
2022-08-10T16:36:42.323Z,100737.19
2022-08-10T16:39:18.106Z,100738.59
2022-08-10T16:42:05.194Z,100736.84
2022-08-10T16:44:44.368Z,100730.69
2022-08-10T16:47:12.371Z,100728.88
2022-08-10T16:49:40.055Z,100726.88
2022-08-10T16:52:08.002Z,100720.13
2022-08-10T16:54:36.171Z,100715.75
2022-08-10T16:57:05.026Z,100724.06
2022-08-10T16:59:38.359Z,100721.72
2022-08-10T17:02:06.018Z,100723.94
2022-08-10T17:04:34.305Z,100724.97
2022-08-10T17:07:04.798Z,100714.13
2022-08-10T17:09:34.031Z,100727.88
2022-08-10T17:12:10.782Z,100716.53
2022-08-10T17:14:40.199Z,100718.56
2022-08-10T17:17:12.280Z,100710.13
2022-08-10T17:19:42.996Z,100713.69
2022-08-10T17:22:23.502Z,100703.75
2022-08-10T17:24:54.822Z,100704.28
2022-08-10T17:28:05.749Z,100701.38
2022-08-10T17:30:15.844Z,100699.69
2022-08-10T17:32:49.949Z,100700.03
2022-08-10T17:35:25.914Z,100705.31
2022-08-10T17:38:08.510Z,100705.97
2022-08-10T17:40:44.806Z,100699.22
2022-08-10T17:43:12.091Z,100710.00
2022-08-10T17:45:47.792Z,100701.53
2022-08-10T17:48:17.557Z,100703.38
2022-08-10T17:50:49.395Z,100703.38
2022-08-10T17:53:22.909Z,100699.53
2022-08-10T17:55:54.624Z,100706.88
2022-08-10T17:58:22.258Z,100705.84
2022-08-10T18:01:38.350Z,100708.22
2022-08-10T18:03:52.602Z,100709.28
2022-08-10T18:06:19.985Z,100710.03
2022-08-10T18:08:47.801Z,100703.97
2022-08-10T18:11:19.618Z,100709.72
2022-08-10T18:13:55.952Z,100709.19
2022-08-10T18:16:26.608Z,100711.22
2022-08-10T18:19:00.178Z,100713.91
2022-08-10T18:21:30.704Z,100723.38
2022-08-10T18:24:09.915Z,100721.78
2022-08-10T18:26:41.113Z,100721.78
2022-08-10T18:29:18.375Z,100717.09
2022-08-10T18:31:47.340Z,100724.66
2022-08-10T18:34:18.786Z,100733.00
2022-08-10T18:36:47.288Z,100730.25
2022-08-10T18:39:16.219Z,100731.63
2022-08-10T18:42:00.720Z,100734.78
2022-08-10T18:44:41.600Z,100725.97
2022-08-10T18:47:59.293Z,100728.72
2022-08-10T18:50:53.750Z,100730.16
2022-08-10T18:53:23.161Z,100735.47
2022-08-10T18:56:08.640Z,100736.59
2022-08-10T18:59:03.088Z,100744.13
2022-08-10T19:01:56.356Z,100745.97
2022-08-10T19:05:30.865Z,100757.44
2022-08-10T19:08:30.808Z,100758.03
2022-08-10T19:10:58.288Z,100764.78
2022-08-10T19:13:34.259Z,100757.44
2022-08-10T19:16:35.534Z,100756.81
2022-08-10T19:19:22.494Z,100758.34
2022-08-10T19:22:28.813Z,100762.69
2022-08-10T19:26:37.980Z,100755.16
2022-08-10T19:28:23.337Z,100766.38
2022-08-10T19:30:57.877Z,100768.00
2022-08-10T19:34:22.390Z,100769.34
2022-08-10T19:37:04.935Z,100772.00
2022-08-10T19:39:51.479Z,100777.06
2022-08-10T19:42:31.894Z,100776.78
2022-08-10T19:45:06.846Z,100786.63
2022-08-10T19:47:51.073Z,100790.63
2022-08-10T19:50:40.327Z,100788.47
2022-08-10T19:53:24.808Z,100782.66
2022-08-10T19:56:33.573Z,100795.16
2022-08-10T20:00:19.781Z,100798.06
2022-08-10T20:02:10.042Z,100803.00
2022-08-10T20:04:44.975Z,100812.41
2022-08-10T20:07:19.066Z,100806.81
2022-08-10T20:10:16.924Z,100822.50
2022-08-10T20:13:02.122Z,100810.88
2022-08-10T20:15:55.201Z,100804.38
2022-08-10T20:18:26.364Z,100821.22
2022-08-10T20:21:06.182Z,100818.78
2022-08-10T20:23:35.384Z,100819.38
2022-08-10T20:26:14.451Z,100814.97
2022-08-10T20:29:57.188Z,100823.28
2022-08-10T20:32:10.860Z,100826.22
2022-08-10T20:34:48.022Z,100831.59
2022-08-10T20:38:01.925Z,100835.69
2022-08-10T20:41:01.783Z,100843.75
2022-08-10T20:43:43.477Z,100839.31
2022-08-10T20:46:37.933Z,100844.53
2022-08-10T20:49:15.975Z,100835.97
2022-08-10T20:51:57.956Z,100844.22
2022-08-10T20:54:50.967Z,100838.09
2022-08-10T20:57:56.145Z,100842.63
2022-08-10T21:00:11.209Z,100847.16
2022-08-10T21:02:50.293Z,100843.59
2022-08-10T21:05:17.057Z,100840.13
2022-08-10T21:08:02.886Z,100846.25
2022-08-10T21:10:36.200Z,100846.72
2022-08-10T21:13:41.169Z,100844.00
2022-08-10T21:16:20.400Z,100841.78
2022-08-10T21:18:47.506Z,100851.03
2022-08-10T21:21:41.039Z,100859.38
2022-08-10T21:24:12.569Z,100856.75
2022-08-10T21:26:55.844Z,100854.63
2022-08-10T21:29:53.907Z,100855.31
2022-08-10T21:32:48.369Z,100860.97
2022-08-10T21:35:37.639Z,100855.97
2022-08-10T21:38:21.387Z,100854.06
2022-08-10T21:41:17.090Z,100850.13
2022-08-10T21:44:09.072Z,100859.41
2022-08-10T21:47:07.576Z,100848.56
2022-08-10T21:50:25.504Z,100849.16
2022-08-10T21:53:43.994Z,100852.06
2022-08-10T21:57:05.449Z,100845.53
2022-08-10T21:59:58.845Z,100842.00
2022-08-10T22:02:50.249Z,100843.16
2022-08-10T22:05:43.265Z,100839.59
2022-08-10T22:08:29.673Z,100836.31
2022-08-10T22:11:16.801Z,100843.41
2022-08-10T22:14:06.719Z,100845.84
2022-08-10T22:17:05.338Z,100838.19
2022-08-10T22:19:57.405Z,100836.88
2022-08-10T22:22:56.517Z,100839.06
2022-08-10T22:26:04.344Z,100837.13
2022-08-10T22:28:50.173Z,100837.97
2022-08-10T22:32:10.470Z,100844.25
2022-08-10T22:35:14.495Z,100849.97
2022-08-10T22:38:37.581Z,100842.84
2022-08-10T22:41:34.554Z,100842.06
2022-08-10T22:44:21.103Z,100843.44
2022-08-10T22:47:07.087Z,100846.59
2022-08-10T22:49:34.067Z,100846.63
2022-08-10T22:52:08.491Z,100846.78
2022-08-10T22:55:07.708Z,100849.88
2022-08-10T22:57:53.387Z,100848.00
2022-08-10T23:00:31.286Z,100846.66
2022-08-10T23:03:22.188Z,100847.44
2022-08-10T23:05:59.102Z,100860.25
2022-08-10T23:08:32.372Z,100866.44
2022-08-10T23:11:08.339Z,100856.03
2022-08-10T23:13:42.443Z,100853.53
2022-08-10T23:16:54.550Z,100855.16
2022-08-10T23:19:30.602Z,100858.31
2022-08-10T23:22:09.961Z,100851.50
2022-08-10T23:24:40.218Z,100849.50
2022-08-10T23:27:13.002Z,100849.41
2022-08-10T23:30:09.749Z,100852.41
2022-08-10T23:32:52.156Z,100848.34
2022-08-10T23:36:05.513Z,100850.78
2022-08-10T23:38:10.806Z,100857.09
2022-08-10T23:40:38.496Z,100850.84
2022-08-10T23:43:05.582Z,100852.78
2022-08-10T23:45:53.164Z,100853.72
2022-08-10T23:48:22.641Z,100850.03
2022-08-10T23:51:16.305Z,100848.06
2022-08-10T23:53:45.411Z,100846.56
2022-08-10T23:56:14.792Z,100853.13
2022-08-10T23:58:44.592Z,100847.41
